createdAt,value
2018-04-15T11:48:26.671Z,21.80
2018-04-15T11:50:55.574Z,21.80
2018-04-15T11:53:24.452Z,21.70
2018-04-15T11:55:53.326Z,21.60
2018-04-15T11:58:22.223Z,21.60
2018-04-15T12:00:51.095Z,21.70
2018-04-15T12:03:20.027Z,21.70
2018-04-15T12:05:48.907Z,21.60
2018-04-15T12:08:17.779Z,21.50
2018-04-15T12:10:46.696Z,21.50
2018-04-15T12:13:15.570Z,21.50
2018-04-15T12:15:45.241Z,21.40
2018-04-15T12:18:14.164Z,21.40
2018-04-15T12:20:43.804Z,21.50
2018-04-15T12:23:12.692Z,21.50
2018-04-15T12:25:42.368Z,21.50
2018-04-15T12:28:11.246Z,21.40
2018-04-15T12:30:40.116Z,21.50
2018-04-15T12:33:09.042Z,21.60
2018-04-15T12:35:37.940Z,21.60
2018-04-15T12:38:06.827Z,21.60
2018-04-15T12:40:35.740Z,21.60
2018-04-15T12:43:04.619Z,21.60
2018-04-15T12:45:33.495Z,21.50
2018-04-15T12:48:02.391Z,21.50
2018-04-15T12:50:31.266Z,21.40
2018-04-15T12:53:00.139Z,21.30
2018-04-15T12:55:29.066Z,21.20
2018-04-15T12:57:57.935Z,21.00
2018-04-15T13:00:26.806Z,20.80
2018-04-15T13:02:55.707Z,20.80
2018-04-15T13:05:25.357Z,20.70
2018-04-15T13:07:55.019Z,20.70
2018-04-15T13:10:23.906Z,20.70
2018-04-15T13:12:53.591Z,20.60
2018-04-15T13:15:22.473Z,20.60
2018-04-15T13:17:52.119Z,20.40
2018-04-15T13:20:21.035Z,20.40
2018-04-15T13:22:49.911Z,20.30
2018-04-15T13:25:18.825Z,20.30
2018-04-15T13:27:47.699Z,20.30
2018-04-15T13:30:16.596Z,20.20
2018-04-15T13:32:45.507Z,20.30
2018-04-15T13:35:14.384Z,20.30
2018-04-15T13:37:43.256Z,20.30
2018-04-15T13:40:12.147Z,20.30
2018-04-15T13:42:41.796Z,20.40
2018-04-15T13:45:10.867Z,20.30
2018-04-15T13:47:39.740Z,20.40
2018-04-15T13:50:08.656Z,20.60
2018-04-15T13:52:38.406Z,20.70
2018-04-15T13:55:07.284Z,20.70
2018-04-15T13:57:36.159Z,20.80
2018-04-15T14:00:05.107Z,20.70
2018-04-15T14:02:34.123Z,20.60
2018-04-15T14:05:03.000Z,20.60
2018-04-15T14:07:31.888Z,20.60
2018-04-15T14:10:00.803Z,20.50
2018-04-15T14:12:30.460Z,20.50
2018-04-15T14:14:59.328Z,20.40
2018-04-15T14:17:28.228Z,20.40
2018-04-15T14:19:57.875Z,20.30
2018-04-15T14:22:26.801Z,20.30
2018-04-15T14:24:56.459Z,20.20
2018-04-15T14:27:25.363Z,20.20
2018-04-15T14:29:54.237Z,20.20
2018-04-15T14:32:23.111Z,20.20
2018-04-15T14:34:52.070Z,20.20
2018-04-15T14:37:20.952Z,20.10
2018-04-15T14:39:49.889Z,20.10
2018-04-15T14:42:18.771Z,20.10
2018-04-15T14:44:47.667Z,20.10
2018-04-15T14:47:17.349Z,20.10
2018-04-15T14:49:46.228Z,20.10
2018-04-15T14:52:15.255Z,19.90
2018-04-15T14:54:44.686Z,19.80
2018-04-15T14:57:13.752Z,19.70
2018-04-15T14:59:42.795Z,19.70
2018-04-15T15:02:11.733Z,19.60
2018-04-15T15:04:40.743Z,19.60
2018-04-15T15:07:11.620Z,19.60
2018-04-15T15:09:40.635Z,19.60
2018-04-15T15:12:09.519Z,19.60
2018-04-15T15:14:39.163Z,19.60
2018-04-15T15:17:08.090Z,19.60
2018-04-15T15:19:37.793Z,19.60
2018-04-15T15:22:06.647Z,19.60
2018-04-15T15:24:35.551Z,19.60
2018-04-15T15:27:04.440Z,19.60
2018-04-15T15:29:33.327Z,19.60
2018-04-15T15:32:02.263Z,19.60
2018-04-15T15:34:31.950Z,19.50
2018-04-15T15:37:01.588Z,19.40
2018-04-15T15:39:30.488Z,19.40
2018-04-15T15:41:59.385Z,19.40
2018-04-15T15:44:29.046Z,19.40
2018-04-15T15:46:57.919Z,19.40
2018-04-15T15:49:26.812Z,19.40
2018-04-15T15:51:55.716Z,19.40
2018-04-15T15:54:25.396Z,19.40
2018-04-15T15:56:55.057Z,19.30
2018-04-15T15:59:24.916Z,19.30
2018-04-15T16:01:53.831Z,19.30
2018-04-15T16:04:22.704Z,19.30
2018-04-15T16:06:51.588Z,19.20
2018-04-15T16:09:20.492Z,19.20
2018-04-15T16:11:50.156Z,18.90
2018-04-15T16:14:19.048Z,18.90
2018-04-15T16:16:47.942Z,18.80
2018-04-15T16:19:17.632Z,18.60
2018-04-15T16:21:47.279Z,18.60
2018-04-15T16:24:16.184Z,18.60
2018-04-15T16:26:45.087Z,18.60
2018-04-15T16:29:13.971Z,18.60
2018-04-15T16:31:42.875Z,18.60
2018-04-15T16:34:11.777Z,18.60
2018-04-15T16:36:41.446Z,18.50
2018-04-15T16:39:10.345Z,18.50
2018-04-15T16:41:39.243Z,18.50
2018-04-15T16:44:08.911Z,18.40
2018-04-15T16:46:37.788Z,18.30
2018-04-15T16:49:06.699Z,18.30
2018-04-15T16:51:35.579Z,18.20
2018-04-15T16:54:04.527Z,18.10
2018-04-15T16:56:33.412Z,18.00
2018-04-15T16:59:02.299Z,17.90
2018-04-15T17:01:31.176Z,17.90
2018-04-15T17:04:00.091Z,17.80
2018-04-15T17:06:28.968Z,17.80
2018-04-15T17:08:57.839Z,17.70
2018-04-15T17:11:26.756Z,17.60
2018-04-15T17:13:56.415Z,17.40
2018-04-15T17:16:25.302Z,17.40
2018-04-15T17:18:54.207Z,17.30
2018-04-15T17:21:23.946Z,17.20
2018-04-15T17:23:52.876Z,17.20
2018-04-15T17:26:22.523Z,17.20
2018-04-15T17:28:51.417Z,17.20
2018-04-15T17:31:20.437Z,17.20
2018-04-15T17:33:49.460Z,17.10
2018-04-15T17:36:18.647Z,17.00
2018-04-15T17:38:47.563Z,16.90
2018-04-15T17:41:16.533Z,16.90
2018-04-15T17:43:46.203Z,16.70
2018-04-15T17:46:15.085Z,16.70
2018-04-15T17:48:44.840Z,16.60
2018-04-15T17:51:13.760Z,16.60
2018-04-15T17:53:43.405Z,16.60
2018-04-15T17:56:12.798Z,16.60
2018-04-15T17:58:41.722Z,16.60
2018-04-15T18:01:10.656Z,16.50
2018-04-15T18:03:39.610Z,16.40
2018-04-15T18:06:08.500Z,16.40
2018-04-15T18:08:37.383Z,16.30
2018-04-15T18:11:06.553Z,16.30
2018-04-15T18:13:35.498Z,16.20
2018-04-15T18:16:04.371Z,16.10
2018-04-15T18:18:33.952Z,16.10
2018-04-15T18:21:03.803Z,16.00
2018-04-15T18:23:33.652Z,15.90
2018-04-15T18:26:02.911Z,15.90
2018-04-15T18:28:31.867Z,15.90
2018-04-15T18:31:01.129Z,15.90
2018-04-15T18:33:30.293Z,15.90
2018-04-15T18:35:59.620Z,15.90
2018-04-15T18:38:28.715Z,15.90
2018-04-15T18:40:57.771Z,15.80
2018-04-15T18:43:26.662Z,15.80
2018-04-15T18:45:55.546Z,15.80
2018-04-15T18:48:24.636Z,15.80
2018-04-15T18:50:54.416Z,15.70
2018-04-15T18:53:23.404Z,15.70
2018-04-15T18:55:53.306Z,15.60
2018-04-15T18:58:24.067Z,15.60
2018-04-15T19:00:53.247Z,15.60
2018-04-15T19:03:22.240Z,15.60
2018-04-15T19:05:51.250Z,15.60
2018-04-15T19:08:20.130Z,15.60
2018-04-15T19:10:49.803Z,15.60
2018-04-15T19:13:19.048Z,15.60
2018-04-15T19:15:47.939Z,15.60
2018-04-15T19:18:17.063Z,15.60
2018-04-15T19:20:46.948Z,15.60
2018-04-15T19:23:15.938Z,15.60
2018-04-15T19:25:45.978Z,15.50
2018-04-15T19:28:15.023Z,15.50
2018-04-15T19:30:43.942Z,15.50
2018-04-15T19:33:12.883Z,15.50
2018-04-15T19:35:42.729Z,15.50
2018-04-15T19:38:11.733Z,15.50
2018-04-15T19:40:40.684Z,15.60
2018-04-15T19:43:09.693Z,15.60
2018-04-15T19:45:38.792Z,15.60
2018-04-15T19:48:08.570Z,15.60
2018-04-15T19:50:37.742Z,15.50
2018-04-15T19:53:06.737Z,15.60
2018-04-15T19:55:37.417Z,15.60
2018-04-15T19:58:06.343Z,15.50
2018-04-15T20:00:35.231Z,15.50
2018-04-15T20:03:04.171Z,15.40
2018-04-15T20:05:33.102Z,15.30
2018-04-15T20:08:02.763Z,15.00
2018-04-15T20:10:31.691Z,15.00
2018-04-15T20:13:00.564Z,14.80
2018-04-15T20:15:29.443Z,14.70
2018-04-15T20:17:58.353Z,14.60
2018-04-15T20:20:27.995Z,14.40
2018-04-15T20:22:56.967Z,14.30
2018-04-15T20:25:25.847Z,14.30
2018-04-15T20:27:55.005Z,14.20
2018-04-15T20:30:23.963Z,14.30
2018-04-15T20:32:52.857Z,14.30
2018-04-15T20:35:21.755Z,14.20
2018-04-15T20:37:50.631Z,14.20
2018-04-15T20:40:19.512Z,14.20
2018-04-15T20:42:48.438Z,14.10
2018-04-15T20:45:17.350Z,14.10
2018-04-15T20:47:46.250Z,14.10
2018-04-15T20:50:15.155Z,14.10
2018-04-15T20:52:44.042Z,14.20
2018-04-15T20:55:13.102Z,14.20
2018-04-15T20:57:41.963Z,14.10
2018-04-15T21:00:10.856Z,14.00
2018-04-15T21:02:40.434Z,14.00
2018-04-15T21:05:10.089Z,13.90
2018-04-15T21:07:39.024Z,13.90
2018-04-15T21:10:07.933Z,13.90
2018-04-15T21:12:36.826Z,13.90
2018-04-15T21:15:05.739Z,13.90
2018-04-15T21:17:35.390Z,13.90
2018-04-15T21:20:04.292Z,13.90
2018-04-15T21:22:33.213Z,13.90
2018-04-15T21:25:02.104Z,13.80
2018-04-15T21:27:30.993Z,13.80
2018-04-15T21:29:59.916Z,13.80
2018-04-15T21:32:28.844Z,13.80
2018-04-15T21:34:58.535Z,13.80
2018-04-15T21:37:27.476Z,13.80
2018-04-15T21:39:56.357Z,13.80
2018-04-15T21:42:25.277Z,13.80
2018-04-15T21:44:54.175Z,13.80
2018-04-15T21:47:23.960Z,13.80
2018-04-15T21:49:53.634Z,13.80
2018-04-15T21:52:22.583Z,13.70
2018-04-15T21:54:52.095Z,13.80
2018-04-15T21:57:21.000Z,13.70
2018-04-15T21:59:50.689Z,13.60
2018-04-15T22:02:19.655Z,13.70
2018-04-15T22:04:48.567Z,13.60
2018-04-15T22:07:17.469Z,13.70
2018-04-15T22:09:49.336Z,13.60
2018-04-15T22:12:19.642Z,13.70
2018-04-15T22:14:48.603Z,13.70
2018-04-15T22:17:17.481Z,13.70
2018-04-15T22:19:46.367Z,13.70
2018-04-15T22:22:15.299Z,13.70
2018-04-15T22:24:44.327Z,13.70
2018-04-15T22:27:13.237Z,13.70
2018-04-15T22:29:42.908Z,13.70
2018-04-15T22:32:11.833Z,13.70
2018-04-15T22:34:40.744Z,13.70
2018-04-15T22:37:09.627Z,13.70
2018-04-15T22:39:38.515Z,13.70
2018-04-15T22:42:07.415Z,13.70
2018-04-15T22:44:36.307Z,13.70
2018-04-15T22:47:05.408Z,13.60
2018-04-15T22:49:34.316Z,13.60
2018-04-15T22:52:03.347Z,13.60
2018-04-15T22:54:32.244Z,13.60
2018-04-15T22:57:17.551Z,13.60
2018-04-15T22:59:47.214Z,13.60
2018-04-15T23:02:16.127Z,13.50
2018-04-15T23:04:45.008Z,13.60
2018-04-15T23:07:13.937Z,13.50
2018-04-15T23:09:42.868Z,13.50
2018-04-15T23:12:11.808Z,13.50
2018-04-15T23:14:40.687Z,13.60
2018-04-15T23:17:10.356Z,13.60
2018-04-15T23:19:39.281Z,13.60
2018-04-15T23:22:08.172Z,13.60
2018-04-15T23:24:37.060Z,13.60
2018-04-15T23:27:05.971Z,13.60
2018-04-15T23:29:35.632Z,13.70
2018-04-15T23:32:04.551Z,13.70
2018-04-15T23:34:34.204Z,13.70
2018-04-15T23:37:03.092Z,13.70
2018-04-15T23:39:32.026Z,13.70
2018-04-15T23:42:00.922Z,13.70
2018-04-15T23:44:29.802Z,13.70
2018-04-15T23:46:58.732Z,13.60
2018-04-15T23:49:27.619Z,13.60
2018-04-15T23:51:56.508Z,13.50
2018-04-15T23:54:25.407Z,13.60
2018-04-15T23:56:56.108Z,13.60
2018-04-15T23:59:25.032Z,13.60
